createdAt,value
2017-11-11T00:01:26.576Z,1.20
2017-11-11T00:03:54.026Z,1.87
2017-11-11T00:06:21.494Z,1.90
2017-11-11T00:08:48.946Z,1.70
2017-11-11T00:11:16.506Z,1.67
2017-11-11T00:13:44.069Z,2.03
2017-11-11T00:16:11.526Z,1.45
2017-11-11T00:18:38.979Z,1.58
2017-11-11T00:21:06.438Z,1.40
2017-11-11T00:23:33.886Z,1.50
2017-11-11T00:26:01.338Z,1.40
2017-11-11T00:28:28.869Z,1.70
2017-11-11T00:30:56.362Z,1.48
2017-11-11T00:33:23.829Z,1.00
2017-11-11T00:35:51.283Z,1.90
2017-11-11T00:38:18.833Z,1.60
2017-11-11T00:40:46.287Z,1.80
2017-11-11T00:43:13.754Z,1.12
2017-11-11T00:45:41.314Z,1.50
2017-11-11T00:48:08.761Z,1.42
2017-11-11T00:50:36.320Z,1.20
2017-11-11T00:53:03.778Z,1.10
2017-11-11T00:55:31.338Z,1.17
2017-11-11T00:57:58.794Z,1.15
2017-11-11T01:00:26.362Z,1.00
2017-11-11T01:02:53.826Z,1.60
2017-11-11T01:05:21.282Z,1.15
2017-11-11T01:07:48.747Z,1.50
2017-11-11T01:10:16.965Z,1.77
2017-11-11T01:12:44.464Z,1.40
2017-11-11T01:15:12.735Z,1.00
2017-11-11T01:17:40.252Z,0.73
2017-11-11T01:20:07.754Z,0.98
2017-11-11T01:22:35.302Z,1.35
2017-11-11T01:25:02.755Z,1.50
2017-11-11T01:27:30.226Z,1.10
2017-11-11T01:29:57.781Z,1.10
2017-11-11T01:32:25.238Z,1.12
2017-11-11T01:34:52.798Z,2.55
2017-11-11T01:37:20.258Z,1.42
2017-11-11T01:39:47.810Z,1.15
2017-11-11T01:42:15.267Z,1.40
2017-11-11T01:44:42.834Z,1.20
2017-11-11T01:47:10.291Z,1.70
2017-11-11T01:49:37.763Z,1.65
2017-11-11T01:52:06.031Z,2.87
2017-11-11T01:54:33.600Z,1.85
2017-11-11T01:57:01.854Z,1.80
2017-11-11T01:59:29.424Z,1.65
2017-11-11T02:01:58.389Z,2.03
2017-11-11T02:04:25.855Z,1.60
2017-11-11T02:06:53.307Z,2.00
2017-11-11T02:09:20.766Z,1.50
2017-11-11T02:11:48.223Z,2.00
2017-11-11T02:14:15.784Z,1.65
2017-11-11T02:16:43.347Z,2.15
2017-11-11T02:19:10.806Z,1.92
2017-11-11T02:21:38.367Z,2.08
2017-11-11T02:24:05.918Z,1.80
2017-11-11T02:26:33.480Z,2.15
2017-11-11T02:29:00.947Z,2.62
2017-11-11T02:31:28.495Z,1.70
2017-11-11T02:33:55.963Z,2.08
2017-11-11T02:36:23.413Z,2.37
2017-11-11T02:38:50.884Z,1.98
2017-11-11T02:41:19.119Z,1.65
2017-11-11T02:43:46.583Z,1.27
2017-11-11T02:46:14.044Z,1.65
2017-11-11T02:48:41.547Z,1.70
2017-11-11T02:51:09.014Z,1.55
2017-11-11T02:53:36.466Z,1.80
2017-11-11T02:56:03.927Z,1.40
2017-11-11T02:58:31.443Z,1.60
2017-11-11T03:00:58.998Z,1.60
2017-11-11T03:03:26.551Z,1.65
2017-11-11T03:05:55.649Z,1.15
2017-11-11T03:08:23.171Z,1.60
2017-11-11T03:10:50.644Z,1.20
2017-11-11T03:13:18.108Z,1.30
2017-11-11T03:15:45.578Z,1.20
2017-11-11T03:18:13.035Z,1.40
2017-11-11T03:20:40.503Z,1.62
2017-11-11T03:23:07.973Z,1.35
2017-11-11T03:25:36.204Z,2.53
2017-11-11T03:28:03.670Z,1.77
2017-11-11T03:30:31.132Z,2.95
2017-11-11T03:32:58.585Z,1.58
2017-11-11T03:35:26.059Z,1.65
2017-11-11T03:37:53.514Z,1.80
2017-11-11T03:40:20.990Z,1.50
2017-11-11T03:42:49.228Z,2.53
2017-11-11T03:45:16.694Z,1.50
2017-11-11T03:47:44.319Z,1.42
2017-11-11T03:50:11.774Z,2.00
2017-11-11T03:52:39.270Z,1.90
2017-11-11T03:55:06.730Z,2.15
2017-11-11T03:57:34.204Z,2.15
2017-11-11T04:00:02.444Z,2.22
2017-11-11T04:02:29.919Z,1.90
2017-11-11T04:04:57.475Z,2.55
2017-11-11T04:07:24.943Z,2.95
2017-11-11T04:09:52.488Z,1.90
2017-11-11T04:12:19.955Z,1.77
2017-11-11T04:14:47.411Z,2.45
2017-11-11T04:17:14.895Z,2.08
2017-11-11T04:19:43.104Z,1.90
2017-11-11T04:22:10.591Z,1.90
2017-11-11T04:24:38.048Z,1.95
2017-11-11T04:27:05.516Z,2.62
2017-11-11T04:29:33.757Z,2.25
2017-11-11T04:32:01.295Z,1.40
2017-11-11T04:34:28.748Z,2.25
2017-11-11T04:36:56.214Z,2.50
2017-11-11T04:39:23.679Z,2.47
2017-11-11T04:41:51.135Z,2.17
2017-11-11T04:44:18.594Z,2.92
2017-11-11T04:46:46.042Z,2.35
2017-11-11T04:49:13.518Z,3.28
2017-11-11T04:51:40.988Z,2.17
2017-11-11T04:54:08.446Z,2.35
2017-11-11T04:56:35.902Z,2.37
2017-11-11T04:59:03.425Z,2.58
2017-11-11T05:01:30.914Z,2.10
2017-11-11T05:03:58.374Z,2.22
2017-11-11T05:06:25.826Z,2.75
2017-11-11T05:08:53.286Z,2.22
2017-11-11T05:11:20.847Z,2.12
2017-11-11T05:13:48.331Z,2.15
2017-11-11T05:16:16.562Z,2.80
2017-11-11T05:18:44.028Z,1.98
2017-11-11T05:21:11.487Z,1.98
2017-11-11T05:23:39.007Z,2.33
2017-11-11T05:26:06.517Z,2.15
2017-11-11T05:28:33.975Z,2.20
2017-11-11T05:31:02.227Z,1.92
2017-11-11T05:33:29.686Z,2.37
2017-11-11T05:35:57.210Z,2.30
2017-11-11T05:38:24.719Z,2.10
2017-11-11T05:40:52.187Z,2.40
2017-11-11T05:43:20.407Z,2.65
2017-11-11T05:45:47.876Z,2.53
2017-11-11T05:48:15.362Z,2.10
2017-11-11T05:50:42.822Z,2.40
2017-11-11T05:53:10.279Z,2.60
2017-11-11T05:55:38.516Z,2.80
2017-11-11T05:58:05.986Z,2.05
2017-11-11T06:00:33.439Z,2.20
2017-11-11T06:03:00.904Z,2.70
2017-11-11T06:05:28.360Z,2.83
2017-11-11T06:07:55.841Z,2.00
2017-11-11T06:10:23.335Z,5.03
2017-11-11T06:12:50.903Z,2.30
2017-11-11T06:15:18.383Z,2.22
2017-11-11T06:17:45.890Z,2.40
2017-11-11T06:20:14.142Z,2.10
2017-11-11T06:22:41.637Z,2.70
2017-11-11T06:25:09.172Z,2.35
2017-11-11T06:27:37.418Z,2.03
2017-11-11T06:30:04.910Z,2.45
2017-11-11T06:32:33.180Z,2.58
2017-11-11T06:35:01.486Z,2.60
2017-11-11T06:37:28.987Z,2.33
2017-11-11T06:39:56.592Z,2.03
2017-11-11T06:42:24.135Z,2.00
2017-11-11T06:44:52.447Z,2.00
2017-11-11T06:47:19.935Z,1.90
2017-11-11T06:49:47.423Z,2.50
2017-11-11T06:52:15.667Z,2.50
2017-11-11T06:54:43.186Z,1.60
2017-11-11T06:57:10.752Z,1.98
2017-11-11T06:59:38.238Z,1.75
2017-11-11T07:02:05.718Z,1.80
2017-11-11T07:04:33.287Z,1.70
2017-11-11T07:07:01.537Z,2.10
2017-11-11T07:09:29.041Z,1.62
2017-11-11T07:11:56.526Z,2.22
2017-11-11T07:14:24.016Z,2.12
2017-11-11T07:16:51.608Z,2.12
2017-11-11T07:19:19.850Z,1.50
2017-11-11T07:21:47.334Z,1.70
2017-11-11T07:24:15.582Z,2.17
2017-11-11T07:26:43.078Z,2.30
2017-11-11T07:29:10.568Z,2.50
2017-11-11T07:31:38.060Z,2.10
2017-11-11T07:34:05.535Z,2.50
2017-11-11T07:36:33.791Z,2.25
2017-11-11T07:39:01.371Z,2.35
2017-11-11T07:41:29.647Z,2.00
2017-11-11T07:43:57.924Z,2.40
2017-11-11T07:46:25.484Z,2.08
2017-11-11T07:48:53.739Z,2.37
2017-11-11T07:51:22.038Z,2.45
2017-11-11T07:53:50.290Z,2.03
2017-11-11T07:56:17.779Z,1.95
2017-11-11T07:58:45.258Z,2.60
2017-11-11T08:01:12.739Z,2.08
2017-11-11T08:03:40.241Z,1.70
2017-11-11T08:06:07.805Z,3.08
2017-11-11T08:08:35.355Z,2.65
2017-11-11T08:11:03.614Z,2.25
2017-11-11T08:13:32.622Z,3.72
2017-11-11T08:16:00.876Z,2.67
2017-11-11T08:18:28.377Z,2.67
2017-11-11T08:20:55.882Z,3.00
2017-11-11T08:23:23.411Z,3.25
2017-11-11T08:25:50.892Z,2.80
2017-11-11T08:28:18.394Z,2.75
2017-11-11T08:30:45.879Z,2.20
2017-11-11T08:33:13.383Z,2.97
2017-11-11T08:35:40.856Z,2.75
2017-11-11T08:38:09.099Z,3.25
2017-11-11T08:40:36.620Z,2.95
2017-11-11T08:43:04.107Z,2.80
2017-11-11T08:45:31.608Z,3.12
2017-11-11T08:47:59.880Z,3.35
2017-11-11T08:50:28.132Z,2.65
2017-11-11T08:52:55.628Z,3.28
2017-11-11T08:55:23.117Z,4.95
2017-11-11T08:57:50.662Z,3.50
2017-11-11T09:00:18.156Z,3.58
2017-11-11T09:02:45.641Z,2.87
2017-11-11T09:05:13.895Z,3.12
2017-11-11T09:07:41.388Z,2.33
2017-11-11T09:10:08.928Z,2.60
2017-11-11T09:12:37.183Z,2.70
2017-11-11T09:15:04.772Z,3.10
2017-11-11T09:17:32.273Z,2.70
2017-11-11T09:19:59.781Z,3.05
2017-11-11T09:22:28.030Z,2.47
2017-11-11T09:24:55.535Z,2.10
2017-11-11T09:27:23.028Z,2.85
2017-11-11T09:29:50.534Z,2.05
2017-11-11T09:32:18.790Z,2.20
2017-11-11T09:34:46.281Z,2.17
2017-11-11T09:37:13.767Z,3.03
2017-11-11T09:39:41.244Z,2.60
2017-11-11T09:42:08.731Z,2.53
2017-11-11T09:44:37.044Z,2.25
2017-11-11T09:47:04.576Z,2.20
2017-11-11T09:49:32.062Z,2.20
2017-11-11T09:51:59.567Z,3.03
2017-11-11T09:54:27.055Z,3.10
2017-11-11T09:56:54.542Z,2.55
2017-11-11T09:59:22.030Z,2.95
2017-11-11T10:01:49.516Z,2.95
2017-11-11T10:04:17.763Z,3.95
2017-11-11T10:06:45.252Z,2.25
2017-11-11T10:09:12.838Z,2.90
2017-11-11T10:11:40.367Z,2.75
2017-11-11T10:14:08.637Z,3.12
2017-11-11T10:16:36.919Z,3.20
2017-11-11T10:19:05.179Z,2.40
2017-11-11T10:21:33.434Z,2.35
2017-11-11T10:24:00.923Z,2.40
2017-11-11T10:26:29.194Z,2.65
2017-11-11T10:28:57.441Z,1.90
2017-11-11T10:31:24.927Z,2.45
2017-11-11T10:33:53.212Z,3.33
2017-11-11T10:36:21.492Z,2.60
2017-11-11T10:38:48.992Z,2.33
2017-11-11T10:41:16.485Z,2.35
2017-11-11T10:43:44.050Z,2.28
2017-11-11T10:46:12.326Z,2.85
2017-11-11T10:48:40.594Z,3.12
2017-11-11T10:51:08.081Z,3.72
2017-11-11T10:53:35.627Z,3.60
2017-11-11T10:56:03.182Z,4.35
2017-11-11T10:58:31.458Z,3.80
2017-11-11T11:00:59.724Z,3.22
2017-11-11T11:03:27.966Z,3.78
2017-11-11T11:05:55.563Z,3.10
2017-11-11T11:08:23.815Z,3.50
2017-11-11T11:10:51.311Z,3.08
2017-11-11T11:13:18.803Z,2.78
2017-11-11T11:15:46.291Z,3.12
2017-11-11T11:18:14.592Z,3.58
2017-11-11T11:20:42.859Z,3.90
2017-11-11T11:23:11.111Z,3.40
2017-11-11T11:25:38.611Z,3.25
2017-11-11T11:28:06.150Z,3.05
2017-11-11T11:30:34.427Z,3.17
2017-11-11T11:33:02.679Z,3.40
2017-11-11T11:35:30.164Z,3.50
2017-11-11T11:37:58.594Z,3.25
2017-11-11T11:40:26.087Z,3.10
2017-11-11T11:42:53.663Z,3.47
2017-11-11T11:45:21.277Z,3.72
2017-11-11T11:47:48.767Z,3.30
2017-11-11T11:50:17.024Z,3.55
2017-11-11T11:52:44.617Z,3.10
2017-11-11T11:55:12.867Z,3.33
2017-11-11T11:57:40.362Z,3.53
2017-11-11T12:00:07.838Z,3.72
2017-11-11T12:02:35.331Z,3.42
2017-11-11T12:05:02.822Z,3.55
2017-11-11T12:07:30.314Z,2.53
2017-11-11T12:09:57.802Z,2.72
2017-11-11T12:12:25.291Z,3.08
2017-11-11T12:14:53.597Z,3.22
2017-11-11T12:17:21.082Z,2.85
2017-11-11T12:19:48.568Z,2.85
2017-11-11T12:22:16.825Z,3.30
2017-11-11T12:24:44.309Z,2.20
2017-11-11T12:27:12.563Z,3.75
2017-11-11T12:29:40.140Z,3.42
2017-11-11T12:32:08.428Z,3.25
2017-11-11T12:34:36.693Z,3.50
2017-11-11T12:37:04.999Z,3.85
2017-11-11T12:39:32.478Z,3.65
2017-11-11T12:41:59.981Z,3.75
2017-11-11T12:44:28.261Z,3.83
2017-11-11T12:46:56.540Z,4.00
2017-11-11T12:49:24.078Z,3.30
2017-11-11T12:51:51.573Z,4.32
2017-11-11T12:54:19.066Z,3.87
2017-11-11T12:56:46.542Z,3.15
2017-11-11T12:59:14.025Z,3.22
2017-11-11T13:01:42.278Z,3.40
2017-11-11T13:04:09.763Z,4.00
2017-11-11T13:06:38.043Z,3.87
2017-11-11T13:09:06.304Z,3.45
2017-11-11T13:11:34.587Z,3.40
2017-11-11T13:14:02.143Z,3.25
2017-11-11T13:16:30.390Z,3.67
2017-11-11T13:18:58.546Z,3.90
2017-11-11T13:21:26.025Z,3.62
2017-11-11T13:23:53.518Z,3.35
2017-11-11T13:26:21.007Z,3.20
2017-11-11T13:28:48.502Z,3.58
2017-11-11T13:31:16.083Z,3.45
2017-11-11T13:33:44.333Z,3.00
2017-11-11T13:36:11.820Z,3.75
2017-11-11T13:38:39.379Z,3.10
2017-11-11T13:41:07.643Z,3.45
2017-11-11T13:43:36.089Z,3.37
2017-11-11T13:46:03.580Z,3.05
2017-11-11T13:48:31.830Z,2.85
2017-11-11T13:51:00.135Z,3.40
2017-11-11T13:53:28.380Z,3.53
2017-11-11T13:55:55.866Z,3.15
2017-11-11T13:58:24.123Z,3.60
2017-11-11T14:00:51.606Z,2.90
2017-11-11T14:03:19.095Z,3.80
2017-11-11T14:05:46.615Z,2.40
2017-11-11T14:08:14.931Z,3.22
2017-11-11T14:10:42.447Z,2.55
2017-11-11T14:13:10.704Z,3.12
2017-11-11T14:15:38.289Z,3.20
2017-11-11T14:18:05.791Z,3.15
2017-11-11T14:20:33.286Z,2.97
2017-11-11T14:23:00.788Z,2.47
2017-11-11T14:25:28.279Z,2.40
2017-11-11T14:27:55.871Z,2.45
2017-11-11T14:30:24.114Z,2.97
2017-11-11T14:32:51.708Z,2.70
2017-11-11T14:35:19.958Z,2.62
2017-11-11T14:37:47.459Z,2.50
2017-11-11T14:40:14.946Z,2.58
2017-11-11T14:42:42.452Z,2.58
2017-11-11T14:45:10.713Z,2.80
2017-11-11T14:47:38.215Z,2.90
2017-11-11T14:50:05.787Z,2.62
2017-11-11T14:52:33.270Z,2.85
2017-11-11T14:55:00.768Z,3.10
2017-11-11T14:57:29.024Z,2.90
2017-11-11T14:59:56.511Z,3.70
2017-11-11T15:02:24.014Z,3.70
2017-11-11T15:04:51.507Z,3.75
2017-11-11T15:07:19.786Z,3.72
2017-11-11T15:09:48.047Z,3.60
2017-11-11T15:12:15.558Z,3.87
2017-11-11T15:14:43.065Z,3.60
2017-11-11T15:17:11.319Z,3.95
2017-11-11T15:19:38.811Z,3.47
2017-11-11T15:22:07.081Z,3.87
2017-11-11T15:24:35.347Z,3.90
2017-11-11T15:27:03.607Z,3.05
2017-11-11T15:29:31.091Z,3.75
2017-11-11T15:31:59.343Z,3.35
2017-11-11T15:34:27.652Z,4.25
2017-11-11T15:36:55.216Z,4.28
2017-11-11T15:39:22.707Z,4.12
2017-11-11T15:41:50.321Z,4.70
2017-11-11T15:44:18.570Z,3.22
2017-11-11T15:46:46.069Z,3.60
2017-11-11T15:49:13.580Z,4.03
2017-11-11T15:51:42.591Z,3.75
2017-11-11T15:54:10.076Z,3.90
2017-11-11T15:56:37.585Z,2.95
2017-11-11T15:59:05.086Z,2.78
2017-11-11T16:01:32.578Z,3.45
2017-11-11T16:04:00.075Z,3.60
2017-11-11T16:06:27.563Z,3.97
2017-11-11T16:08:55.057Z,4.07
2017-11-11T16:11:22.537Z,3.80
2017-11-11T16:13:50.130Z,3.97
2017-11-11T16:16:17.619Z,3.42
2017-11-11T16:18:45.136Z,4.10
2017-11-11T16:21:13.402Z,3.90
2017-11-11T16:23:41.681Z,3.47
2017-11-11T16:26:09.192Z,4.65
2017-11-11T16:28:36.670Z,3.95
2017-11-11T16:31:04.162Z,3.67
2017-11-11T16:33:32.439Z,4.40
2017-11-11T16:36:00.715Z,3.95
2017-11-11T16:38:29.003Z,4.40
2017-11-11T16:40:56.503Z,4.53
2017-11-11T16:43:24.004Z,3.92
2017-11-11T16:45:52.266Z,4.28
2017-11-11T16:48:20.519Z,4.95
2017-11-11T16:50:48.013Z,4.25
2017-11-11T16:53:16.285Z,4.78
2017-11-11T16:55:45.007Z,4.18
2017-11-11T16:58:12.494Z,4.80
2017-11-11T17:00:39.983Z,5.68
2017-11-11T17:03:08.235Z,4.22
2017-11-11T17:05:35.725Z,5.50
2017-11-11T17:08:03.988Z,5.20
2017-11-11T17:10:32.254Z,5.20
2017-11-11T17:12:59.744Z,4.45
2017-11-11T17:15:27.292Z,4.35
2017-11-11T17:17:55.579Z,5.90
2017-11-11T17:20:23.071Z,5.35
2017-11-11T17:22:50.562Z,4.05
2017-11-11T17:25:18.124Z,4.85
2017-11-11T17:27:46.354Z,4.90
2017-11-11T17:30:13.815Z,4.43
2017-11-11T17:32:41.270Z,4.30
2017-11-11T17:35:08.753Z,3.80
2017-11-11T17:37:36.228Z,4.32
2017-11-11T17:40:04.462Z,3.83
2017-11-11T17:42:31.933Z,3.65
2017-11-11T17:44:59.398Z,3.62
2017-11-11T17:47:26.856Z,3.30
2017-11-11T17:49:54.316Z,3.62
2017-11-11T17:52:21.783Z,2.72
2017-11-11T17:54:50.010Z,3.10
2017-11-11T17:57:17.467Z,2.95
2017-11-11T17:59:44.951Z,3.90
2017-11-11T18:02:12.524Z,3.55
2017-11-11T18:04:40.080Z,3.20
2017-11-11T18:07:07.648Z,2.80
2017-11-11T18:09:35.875Z,4.20
2017-11-11T18:12:03.352Z,3.78
2017-11-11T18:14:30.806Z,3.70
2017-11-11T18:16:58.274Z,3.50
2017-11-11T18:19:25.726Z,4.47
2017-11-11T18:21:53.181Z,3.70
2017-11-11T18:24:20.805Z,3.53
2017-11-11T18:26:48.279Z,3.87
2017-11-11T18:29:15.743Z,4.30
2017-11-11T18:31:43.211Z,3.20
2017-11-11T18:34:10.667Z,3.67
2017-11-11T18:36:38.243Z,3.70
2017-11-11T18:39:05.819Z,3.83
2017-11-11T18:41:34.043Z,3.85
2017-11-11T18:44:01.551Z,3.85
2017-11-11T18:46:29.778Z,3.80
2017-11-11T18:48:57.315Z,3.70
2017-11-11T18:51:24.768Z,3.33
2017-11-11T18:53:52.251Z,4.20
2017-11-11T18:56:19.712Z,4.03
2017-11-11T18:58:47.172Z,4.57
2017-11-11T19:01:14.704Z,3.83
2017-11-11T19:03:42.166Z,4.70
2017-11-11T19:06:09.633Z,3.95
2017-11-11T19:08:37.089Z,4.45
2017-11-11T19:11:04.550Z,4.70
2017-11-11T19:13:32.015Z,3.87
2017-11-11T19:15:59.480Z,4.15
2017-11-11T19:18:27.042Z,5.80
2017-11-11T19:20:56.019Z,4.43
2017-11-11T19:23:23.471Z,4.50
2017-11-11T19:25:50.935Z,4.37
2017-11-11T19:28:18.398Z,4.18
2017-11-11T19:30:45.953Z,4.85
2017-11-11T19:33:13.418Z,3.75
2017-11-11T19:35:40.986Z,3.42
2017-11-11T19:38:08.448Z,3.60
2017-11-11T19:40:36.719Z,3.00
2017-11-11T19:43:04.275Z,2.80
2017-11-11T19:45:32.565Z,2.55
2017-11-11T19:48:00.800Z,2.62
2017-11-11T19:50:28.258Z,2.17
2017-11-11T19:52:55.719Z,2.25
2017-11-11T19:55:23.198Z,1.62
2017-11-11T19:57:50.682Z,1.92
2017-11-11T20:00:18.264Z,1.87
2017-11-11T20:02:45.719Z,1.77
2017-11-11T20:05:13.187Z,1.40
2017-11-11T20:07:40.687Z,1.50
2017-11-11T20:10:08.150Z,1.30
2017-11-11T20:12:36.469Z,1.75
2017-11-11T20:15:03.983Z,1.30
2017-11-11T20:17:31.532Z,1.10
2017-11-11T20:19:58.995Z,1.40
2017-11-11T20:22:26.453Z,1.37
2017-11-11T20:24:54.007Z,1.10
2017-11-11T20:27:21.501Z,1.20
2017-11-11T20:29:48.955Z,1.20
2017-11-11T20:32:16.447Z,1.15
2017-11-11T20:34:43.927Z,1.10
2017-11-11T20:37:11.384Z,1.05
2017-11-11T20:39:38.876Z,1.30
2017-11-11T20:42:07.130Z,1.10
2017-11-11T20:44:34.591Z,0.90
2017-11-11T20:47:02.834Z,1.00
2017-11-11T20:49:30.304Z,1.08
2017-11-11T20:51:57.857Z,0.80
2017-11-11T20:54:25.334Z,1.10
2017-11-11T20:56:52.798Z,1.65
2017-11-11T20:59:21.024Z,1.73
2017-11-11T21:01:48.526Z,1.75
2017-11-11T21:04:15.986Z,1.83
2017-11-11T21:06:44.210Z,2.65
2017-11-11T21:09:11.698Z,2.58
2017-11-11T21:11:39.172Z,2.80
2017-11-11T21:14:06.639Z,4.47
2017-11-11T21:16:34.882Z,3.40
2017-11-11T21:19:02.343Z,3.67
2017-11-11T21:21:29.911Z,3.33
2017-11-11T21:23:57.465Z,3.47
2017-11-11T21:26:25.022Z,3.28
2017-11-11T21:28:52.475Z,3.47
2017-11-11T21:31:19.944Z,3.62
2017-11-11T21:33:47.415Z,4.20
2017-11-11T21:36:15.645Z,3.70
2017-11-11T21:38:43.107Z,3.92
2017-11-11T21:41:10.581Z,4.75
2017-11-11T21:43:38.043Z,4.80
2017-11-11T21:46:05.607Z,4.60
2017-11-11T21:48:33.066Z,4.53
2017-11-11T21:51:01.287Z,5.43
2017-11-11T21:53:28.748Z,5.68
2017-11-11T21:55:56.238Z,5.28
2017-11-11T21:58:23.786Z,4.95
2017-11-11T22:00:51.251Z,4.37
2017-11-11T22:03:18.814Z,4.57
2017-11-11T22:05:46.295Z,5.05
2017-11-11T22:08:14.541Z,5.55
2017-11-11T22:10:41.994Z,4.60
2017-11-11T22:13:09.454Z,5.78
2017-11-11T22:15:37.019Z,5.25
2017-11-11T22:18:04.503Z,5.10
2017-11-11T22:20:32.746Z,5.10
2017-11-11T22:23:00.203Z,3.97
2017-11-11T22:25:27.823Z,5.72
2017-11-11T22:27:55.286Z,4.97
2017-11-11T22:30:22.756Z,5.70
2017-11-11T22:32:50.246Z,4.85
2017-11-11T22:35:18.485Z,5.22
2017-11-11T22:37:46.030Z,6.12
2017-11-11T22:40:13.496Z,5.40
2017-11-11T22:42:40.948Z,5.70
2017-11-11T22:45:08.448Z,5.35
2017-11-11T22:47:35.898Z,4.37
2017-11-11T22:50:03.363Z,4.85
2017-11-11T22:52:31.591Z,5.50
2017-11-11T22:54:59.099Z,4.90
2017-11-11T22:57:26.554Z,4.03
2017-11-11T22:59:54.063Z,4.87
2017-11-11T23:02:21.618Z,5.05
2017-11-11T23:04:49.124Z,4.47
2017-11-11T23:07:17.364Z,4.95
2017-11-11T23:09:44.831Z,5.57
2017-11-11T23:12:12.290Z,5.12
2017-11-11T23:14:39.780Z,4.60
2017-11-11T23:17:08.018Z,5.68
2017-11-11T23:19:35.476Z,5.70
2017-11-11T23:22:02.944Z,5.10
2017-11-11T23:24:30.515Z,6.65
2017-11-11T23:26:57.967Z,5.62
2017-11-11T23:29:25.423Z,5.57
2017-11-11T23:31:52.892Z,5.80
2017-11-11T23:34:21.144Z,6.53
2017-11-11T23:36:48.605Z,6.45
2017-11-11T23:39:16.062Z,5.70
2017-11-11T23:41:43.524Z,5.72
2017-11-11T23:44:11.006Z,4.60
2017-11-11T23:46:39.256Z,6.07
2017-11-11T23:49:06.810Z,5.95
2017-11-11T23:51:34.271Z,5.90
2017-11-11T23:54:01.736Z,5.35
2017-11-11T23:56:29.211Z,6.00
2017-11-11T23:58:57.443Z,5.70
